createdAt,value
2018-03-14T00:00:14.499Z,0
2018-03-14T00:01:14.197Z,0
2018-03-14T00:02:14.203Z,0
2018-03-14T00:03:14.704Z,0
2018-03-14T00:04:14.401Z,0
2018-03-14T00:05:14.673Z,0
2018-03-14T00:06:15.137Z,0
2018-03-14T00:07:16.334Z,0
2018-03-14T00:08:14.692Z,0
2018-03-14T00:09:14.346Z,0
2018-03-14T00:10:14.602Z,0
2018-03-14T00:11:14.564Z,0
2018-03-14T00:12:14.542Z,0
2018-03-14T00:13:14.549Z,0
2018-03-14T00:14:15.934Z,0
2018-03-14T00:15:15.257Z,0
2018-03-14T00:16:14.243Z,0
2018-03-14T00:17:14.480Z,0
2018-03-14T00:18:14.190Z,0
2018-03-14T00:19:14.172Z,0
2018-03-14T00:20:14.436Z,0
2018-03-14T00:21:14.110Z,0
2018-03-14T00:22:16.176Z,0
2018-03-14T00:23:14.091Z,0
2018-03-14T00:24:13.525Z,0
2018-03-14T00:25:13.782Z,0
2018-03-14T00:26:14.334Z,0
2018-03-14T00:27:14.068Z,0
2018-03-14T00:28:13.773Z,0
2018-03-14T00:29:14.029Z,0
2018-03-14T00:30:15.204Z,0
2018-03-14T00:31:13.963Z,0
2018-03-14T00:32:13.730Z,0
2018-03-14T00:33:13.942Z,0
2018-03-14T00:34:13.904Z,0
2018-03-14T00:35:13.644Z,0
2018-03-14T00:36:13.899Z,0
2018-03-14T00:37:14.491Z,0
2018-03-14T00:38:14.890Z,0
2018-03-14T00:39:14.116Z,0
2018-03-14T00:40:13.830Z,0
2018-03-14T00:41:14.051Z,0
2018-03-14T00:42:13.812Z,0
2018-03-14T00:43:13.474Z,0
2018-03-14T00:44:13.745Z,0
2018-03-14T00:45:13.755Z,0
2018-03-14T00:46:15.488Z,0
2018-03-14T00:47:13.417Z,0
2018-03-14T00:48:13.714Z,0
2018-03-14T00:49:13.931Z,0
2018-03-14T00:50:13.092Z,0
2018-03-14T00:51:13.923Z,0
2018-03-14T00:52:13.333Z,0
2018-03-14T00:53:14.795Z,0
2018-03-14T00:54:14.516Z,0
2018-03-14T00:55:13.569Z,0
2018-03-14T00:56:13.804Z,0
2018-03-14T00:57:13.511Z,0
2018-03-14T00:58:13.782Z,0
2018-03-14T00:59:13.882Z,0
2018-03-14T01:00:12.916Z,0
2018-03-14T01:01:15.104Z,0
2018-03-14T01:02:13.623Z,0
2018-03-14T01:03:13.402Z,0
2018-03-14T01:04:12.840Z,0
2018-03-14T01:05:13.680Z,0
2018-03-14T01:06:13.346Z,0
2018-03-14T01:07:13.638Z,0
2018-03-14T01:08:13.298Z,0
2018-03-14T01:09:14.871Z,0
2018-03-14T01:10:13.673Z,0
2018-03-14T01:11:13.590Z,0
2018-03-14T01:12:13.584Z,0
2018-03-14T01:13:12.964Z,0
2018-03-14T01:14:13.218Z,0
2018-03-14T01:15:13.227Z,0
2018-03-14T01:16:13.919Z,0
2018-03-14T01:17:15.020Z,0
2018-03-14T01:18:12.911Z,0
2018-03-14T01:19:13.387Z,0
2018-03-14T01:20:13.408Z,0
2018-03-14T01:21:12.554Z,0
2018-03-14T01:22:13.078Z,0
2018-03-14T01:23:13.381Z,0
2018-03-14T01:24:13.132Z,0
2018-03-14T01:25:14.334Z,0
2018-03-14T01:26:13.036Z,0
2018-03-14T01:27:12.753Z,0
2018-03-14T01:28:12.775Z,0
2018-03-14T01:29:12.688Z,0
2018-03-14T01:30:12.961Z,0
2018-03-14T01:31:13.212Z,0
2018-03-14T01:32:14.399Z,0
2018-03-14T01:33:12.899Z,0
2018-03-14T01:34:12.650Z,0
2018-03-14T01:35:13.152Z,0
2018-03-14T01:36:12.314Z,0
2018-03-14T01:37:12.874Z,0
2018-03-14T01:38:13.083Z,0
2018-03-14T01:39:12.558Z,0
2018-03-14T01:40:14.562Z,0
2018-03-14T01:41:12.780Z,0
2018-03-14T01:42:12.748Z,0
2018-03-14T01:43:12.733Z,0
2018-03-14T01:44:12.740Z,0
2018-03-14T01:45:12.437Z,0
2018-03-14T01:46:12.427Z,0
2018-03-14T01:47:13.579Z,0
2018-03-14T01:48:13.150Z,0
2018-03-14T01:49:12.381Z,0
2018-03-14T01:50:12.648Z,0
2018-03-14T01:51:12.478Z,0
2018-03-14T01:52:12.341Z,0
2018-03-14T01:53:12.592Z,0
2018-03-14T01:54:12.004Z,0
2018-03-14T01:55:13.623Z,0
2018-03-14T01:56:11.970Z,0
2018-03-14T01:57:12.236Z,0
2018-03-14T01:58:12.483Z,0
2018-03-14T01:59:12.183Z,0
2018-03-14T02:00:11.915Z,0
2018-03-14T02:01:12.418Z,0
2018-03-14T02:02:12.191Z,0
2018-03-14T02:03:14.389Z,0
2018-03-14T02:04:12.381Z,0
2018-03-14T02:05:12.086Z,0
2018-03-14T02:06:12.352Z,0
2018-03-14T02:07:12.358Z,0
2018-03-14T02:08:12.080Z,0
2018-03-14T02:09:12.287Z,0
2018-03-14T02:10:13.097Z,0
2018-03-14T02:11:13.500Z,0
2018-03-14T02:12:11.969Z,0
2018-03-14T02:13:12.252Z,0
2018-03-14T02:14:11.953Z,0
2018-03-14T02:15:12.194Z,0
2018-03-14T02:16:12.189Z,0
2018-03-14T02:17:12.163Z,0
2018-03-14T02:18:12.580Z,0
2018-03-14T02:19:13.195Z,0
2018-03-14T02:20:12.113Z,0
2018-03-14T02:21:12.131Z,0
2018-03-14T02:22:12.077Z,0
2018-03-14T02:23:12.344Z,0
2018-03-14T02:24:11.786Z,0
2018-03-14T02:25:12.028Z,0
2018-03-14T02:26:14.451Z,0
2018-03-14T02:27:11.739Z,0
2018-03-14T02:28:11.998Z,0
2018-03-14T02:29:11.991Z,0
2018-03-14T02:30:11.665Z,0
2018-03-14T02:31:12.233Z,0
2018-03-14T02:32:12.212Z,0
2018-03-14T02:33:11.654Z,0
2018-03-14T02:34:13.169Z,0
2018-03-14T02:35:11.584Z,0
2018-03-14T02:36:11.862Z,0
2018-03-14T02:37:12.095Z,0
2018-03-14T02:38:12.100Z,0
2018-03-14T02:39:11.536Z,0
2018-03-14T02:40:11.519Z,0
2018-03-14T02:41:11.977Z,0
2018-03-14T02:42:11.758Z,0
2018-03-14T02:43:12.033Z,0
2018-03-14T02:44:11.970Z,0
2018-03-14T02:45:11.643Z,0
2018-03-14T02:46:11.371Z,0
2018-03-14T02:47:11.610Z,0
2018-03-14T02:48:11.599Z,0
2018-03-14T02:49:11.319Z,0
2018-03-14T02:50:11.304Z,0
2018-03-14T02:51:11.282Z,0
2018-03-14T02:52:11.529Z,0
2018-03-14T02:53:11.514Z,0
2018-03-14T02:54:11.233Z,0
2018-03-14T02:55:11.480Z,0
2018-03-14T02:56:11.466Z,0
2018-03-14T02:57:11.701Z,0
2018-03-14T02:58:11.681Z,0
2018-03-14T02:59:11.401Z,0
2018-03-14T03:00:11.649Z,0
2018-03-14T03:01:11.450Z,0
2018-03-14T03:02:11.354Z,0
2018-03-14T03:03:11.081Z,0
2018-03-14T03:04:11.331Z,0
2018-03-14T03:05:11.492Z,0
2018-03-14T03:06:11.285Z,0
2018-03-14T03:07:11.010Z,0
2018-03-14T03:08:11.249Z,0
2018-03-14T03:09:11.234Z,0
2018-03-14T03:10:10.738Z,0
2018-03-14T03:11:11.501Z,0
2018-03-14T03:12:11.189Z,0
2018-03-14T03:13:11.186Z,0
2018-03-14T03:14:10.634Z,0
2018-03-14T03:15:11.454Z,0
2018-03-14T03:16:11.381Z,0
2018-03-14T03:17:10.583Z,0
2018-03-14T03:18:10.566Z,0
2018-03-14T03:19:11.073Z,0
2018-03-14T03:20:11.051Z,0
2018-03-14T03:21:10.768Z,0
2018-03-14T03:22:11.276Z,0
2018-03-14T03:23:11.253Z,0
2018-03-14T03:24:10.986Z,0
2018-03-14T03:25:10.701Z,0
2018-03-14T03:26:10.170Z,0
2018-03-14T03:27:10.923Z,0
2018-03-14T03:28:11.167Z,0
2018-03-14T03:29:11.159Z,0
2018-03-14T03:30:10.636Z,0
2018-03-14T03:31:10.867Z,0
2018-03-14T03:32:10.590Z,0
2018-03-14T03:33:10.824Z,0
2018-03-14T03:34:10.550Z,0
2018-03-14T03:35:10.796Z,0
2018-03-14T03:36:10.512Z,0
2018-03-14T03:37:10.497Z,0
2018-03-14T03:38:10.993Z,0
2018-03-14T03:39:10.980Z,0
2018-03-14T03:40:10.706Z,0
2018-03-14T03:41:10.945Z,0
2018-03-14T03:42:10.410Z,0
2018-03-14T03:43:10.654Z,0
2018-03-14T03:44:10.902Z,0
2018-03-14T03:45:10.621Z,0
2018-03-14T03:46:10.343Z,0
2018-03-14T03:47:10.593Z,0
2018-03-14T03:48:10.049Z,0
2018-03-14T03:49:10.567Z,0
2018-03-14T03:50:10.536Z,0
2018-03-14T03:51:10.518Z,0
2018-03-14T03:52:10.494Z,0
2018-03-14T03:53:10.482Z,0
2018-03-14T03:54:10.730Z,0
2018-03-14T03:55:10.698Z,0
2018-03-14T03:56:09.912Z,0
2018-03-14T03:57:09.892Z,0
2018-03-14T03:58:10.392Z,0
2018-03-14T03:59:10.377Z,0
2018-03-14T04:00:10.365Z,0
2018-03-14T04:01:10.341Z,0
2018-03-14T04:02:10.328Z,0
2018-03-14T04:03:10.048Z,0
2018-03-14T04:04:10.055Z,0
2018-03-14T04:05:09.500Z,0
2018-03-14T04:06:10.252Z,0
2018-03-14T04:07:10.506Z,0
2018-03-14T04:08:10.481Z,0
2018-03-14T04:09:10.209Z,0
2018-03-14T04:10:10.444Z,0
2018-03-14T04:11:10.169Z,0
2018-03-14T04:12:10.468Z,0
2018-03-14T04:13:10.396Z,0
2018-03-14T04:14:10.389Z,0
2018-03-14T04:15:10.108Z,0
2018-03-14T04:16:10.088Z,0
2018-03-14T04:17:09.811Z,0
2018-03-14T04:18:10.053Z,0
2018-03-14T04:19:09.778Z,0
2018-03-14T04:20:09.767Z,0
2018-03-14T04:21:10.024Z,0
2018-03-14T04:22:10.244Z,0
2018-03-14T04:23:09.971Z,0
2018-03-14T04:24:09.689Z,0
2018-03-14T04:25:09.688Z,0
2018-03-14T04:26:09.914Z,0
2018-03-14T04:27:09.385Z,0
2018-03-14T04:28:09.878Z,0
2018-03-14T04:29:09.863Z,0
2018-03-14T04:30:09.845Z,0
2018-03-14T04:31:09.834Z,0
2018-03-14T04:32:09.554Z,0
2018-03-14T04:33:09.799Z,0
2018-03-14T04:34:09.775Z,0
2018-03-14T04:35:09.767Z,0
2018-03-14T04:36:09.486Z,0
2018-03-14T04:37:09.732Z,0
2018-03-14T04:38:09.966Z,0
2018-03-14T04:39:09.184Z,0
2018-03-14T04:40:09.675Z,0
2018-03-14T04:41:09.144Z,0
2018-03-14T04:42:09.414Z,0
2018-03-14T04:43:09.883Z,0
2018-03-14T04:44:09.864Z,0
2018-03-14T04:45:09.864Z,0
2018-03-14T04:46:09.060Z,0
2018-03-14T04:47:09.551Z,0
2018-03-14T04:48:09.536Z,0
2018-03-14T04:49:09.776Z,0
2018-03-14T04:50:09.505Z,0
2018-03-14T04:51:09.485Z,0
2018-03-14T04:52:09.208Z,0
2018-03-14T04:53:09.706Z,0
2018-03-14T04:54:09.438Z,0
2018-03-14T04:55:09.414Z,0
2018-03-14T04:56:09.657Z,0
2018-03-14T04:57:09.377Z,0
2018-03-14T04:58:09.101Z,0
2018-03-14T04:59:09.085Z,0
2018-03-14T05:00:09.071Z,0
2018-03-14T05:01:09.317Z,0
2018-03-14T05:02:09.307Z,0
2018-03-14T05:03:09.280Z,0
2018-03-14T05:04:09.256Z,0
2018-03-14T05:05:08.990Z,0
2018-03-14T05:06:08.712Z,0
2018-03-14T05:07:08.954Z,0
2018-03-14T05:08:09.456Z,0
2018-03-14T05:09:08.659Z,0
2018-03-14T05:10:08.896Z,0
2018-03-14T05:11:09.144Z,0
2018-03-14T05:12:08.610Z,0
2018-03-14T05:13:09.106Z,0
2018-03-14T05:14:08.829Z,0
2018-03-14T05:15:08.553Z,0
2018-03-14T05:16:09.060Z,0
2018-03-14T05:17:08.268Z,0
2018-03-14T05:18:08.760Z,0
2018-03-14T05:19:08.740Z,0
2018-03-14T05:20:08.737Z,0
2018-03-14T05:21:09.230Z,0
2018-03-14T05:22:08.436Z,0
2018-03-14T05:23:08.931Z,0
2018-03-14T05:24:09.174Z,0
2018-03-14T05:25:08.384Z,0
2018-03-14T05:26:08.883Z,0
2018-03-14T05:27:08.351Z,0
2018-03-14T05:28:09.107Z,0
2018-03-14T05:29:08.570Z,0
2018-03-14T05:30:08.834Z,5
2018-03-14T05:31:08.802Z,5
2018-03-14T05:32:08.528Z,5
2018-03-14T05:33:08.503Z,5
2018-03-14T05:34:08.489Z,5
2018-03-14T05:35:08.726Z,5
2018-03-14T05:36:08.457Z,5
2018-03-14T05:37:08.697Z,5
2018-03-14T05:38:08.418Z,5
2018-03-14T05:39:08.406Z,5
2018-03-14T05:40:08.908Z,5
2018-03-14T05:41:08.886Z,10
2018-03-14T05:42:08.865Z,10
2018-03-14T05:43:08.333Z,10
2018-03-14T05:44:08.573Z,10
2018-03-14T05:45:08.850Z,10
2018-03-14T05:46:08.544Z,10
2018-03-14T05:47:08.269Z,10
2018-03-14T05:48:08.511Z,15
2018-03-14T05:49:08.496Z,15
2018-03-14T05:50:08.735Z,10
2018-03-14T05:51:08.199Z,10
2018-03-14T05:52:07.666Z,15
2018-03-14T05:53:08.165Z,15
2018-03-14T05:54:08.403Z,15
2018-03-14T05:55:08.134Z,15
2018-03-14T05:56:08.632Z,15
2018-03-14T05:57:08.147Z,15
2018-03-14T05:58:08.601Z,15
2018-03-14T05:59:08.315Z,15
2018-03-14T06:00:07.790Z,15
2018-03-14T06:01:08.291Z,15
2018-03-14T06:02:08.530Z,15
2018-03-14T06:03:07.997Z,15
2018-03-14T06:04:08.492Z,15
2018-03-14T06:05:07.960Z,15
2018-03-14T06:06:07.946Z,15
2018-03-14T06:07:08.446Z,20
2018-03-14T06:08:08.170Z,20
2018-03-14T06:09:08.148Z,25
2018-03-14T06:10:08.393Z,25
2018-03-14T06:11:07.855Z,20
2018-03-14T06:12:07.839Z,20
2018-03-14T06:13:07.824Z,20
2018-03-14T06:14:08.068Z,20
2018-03-14T06:15:07.796Z,20
2018-03-14T06:16:07.780Z,20
2018-03-14T06:17:07.757Z,25
2018-03-14T06:18:07.998Z,30
2018-03-14T06:19:07.982Z,30
2018-03-14T06:20:07.966Z,30
2018-03-14T06:21:07.968Z,35
2018-03-14T06:22:07.926Z,35
2018-03-14T06:23:07.911Z,35
2018-03-14T06:24:08.156Z,35
2018-03-14T06:25:07.364Z,40
2018-03-14T06:26:07.863Z,40
2018-03-14T06:27:08.101Z,40
2018-03-14T06:28:07.832Z,45
2018-03-14T06:29:07.555Z,45
2018-03-14T06:30:08.051Z,45
2018-03-14T06:31:08.033Z,50
2018-03-14T06:32:07.245Z,55
2018-03-14T06:33:08.004Z,65
2018-03-14T06:34:07.724Z,70
2018-03-14T06:35:07.711Z,70
2018-03-14T06:36:07.688Z,70
2018-03-14T06:37:07.689Z,70
2018-03-14T06:38:07.656Z,75
2018-03-14T06:39:07.387Z,80
2018-03-14T06:40:07.380Z,80
2018-03-14T06:41:07.624Z,80
2018-03-14T06:42:07.594Z,80
2018-03-14T06:43:07.315Z,85
2018-03-14T06:44:07.819Z,90
2018-03-14T06:45:07.800Z,100
2018-03-14T06:46:07.008Z,95
2018-03-14T06:47:07.252Z,100
2018-03-14T06:48:07.750Z,100
2018-03-14T06:49:07.737Z,85
2018-03-14T06:50:07.727Z,80
2018-03-14T06:51:07.586Z,80
2018-03-14T06:52:07.426Z,80
2018-03-14T06:53:07.666Z,75
2018-03-14T06:54:07.656Z,75
2018-03-14T06:55:07.127Z,75
2018-03-14T06:56:07.098Z,75
2018-03-14T06:57:07.348Z,75
2018-03-14T06:58:07.330Z,80
2018-03-14T06:59:07.426Z,80
2018-03-14T07:00:07.040Z,85
2018-03-14T07:01:07.288Z,85
2018-03-14T07:02:07.095Z,90
2018-03-14T07:03:07.502Z,100
2018-03-14T07:04:07.229Z,95
2018-03-14T07:05:07.216Z,100
2018-03-14T07:06:07.459Z,105
2018-03-14T07:07:07.186Z,110
2018-03-14T07:08:07.422Z,115
2018-03-14T07:09:07.160Z,110
2018-03-14T07:10:07.396Z,110
2018-03-14T07:11:07.114Z,115
2018-03-14T07:12:07.172Z,120
2018-03-14T07:13:07.089Z,115
2018-03-14T07:14:06.553Z,115
2018-03-14T07:15:07.048Z,115
2018-03-14T07:16:07.038Z,110
2018-03-14T07:17:07.282Z,105
2018-03-14T07:18:07.008Z,110
2018-03-14T07:19:06.849Z,115
2018-03-14T07:20:06.717Z,105
2018-03-14T07:21:06.962Z,105
2018-03-14T07:22:07.198Z,110
2018-03-14T07:23:06.921Z,110
2018-03-14T07:24:06.649Z,115
2018-03-14T07:25:06.645Z,125
2018-03-14T07:26:06.885Z,135
2018-03-14T07:27:06.600Z,145
2018-03-14T07:28:06.845Z,160
2018-03-14T07:29:06.830Z,180
2018-03-14T07:30:07.066Z,180
2018-03-14T07:31:06.802Z,175
2018-03-14T07:32:06.853Z,190
2018-03-14T07:33:06.845Z,190
2018-03-14T07:34:06.756Z,175
2018-03-14T07:35:06.477Z,180
2018-03-14T07:36:06.982Z,180
2018-03-14T07:37:06.965Z,175
2018-03-14T07:38:06.432Z,175
2018-03-14T07:39:06.937Z,170
2018-03-14T07:40:06.921Z,175
2018-03-14T07:41:06.642Z,190
2018-03-14T07:42:06.879Z,215
2018-03-14T07:43:06.868Z,235
2018-03-14T07:44:06.078Z,225
2018-03-14T07:45:06.837Z,190
2018-03-14T07:46:06.571Z,180
2018-03-14T07:47:06.031Z,185
2018-03-14T07:48:06.529Z,170
2018-03-14T07:49:06.518Z,155
2018-03-14T07:50:06.254Z,150
2018-03-14T07:51:06.490Z,150
2018-03-14T07:52:06.739Z,150
2018-03-14T07:53:06.707Z,150
2018-03-14T07:54:06.761Z,150
2018-03-14T07:55:06.422Z,160
2018-03-14T07:56:06.409Z,150
2018-03-14T07:57:06.646Z,145
2018-03-14T07:58:06.376Z,155
2018-03-14T07:59:06.509Z,160
2018-03-14T08:00:06.089Z,165
2018-03-14T08:01:06.629Z,185
2018-03-14T08:02:06.340Z,215
2018-03-14T08:03:06.567Z,220
2018-03-14T08:04:06.547Z,215
2018-03-14T08:05:06.529Z,195
2018-03-14T08:06:06.531Z,175
2018-03-14T08:07:05.994Z,160
2018-03-14T08:08:06.273Z,150
2018-03-14T08:09:06.469Z,150
2018-03-14T08:10:06.453Z,160
2018-03-14T08:11:06.454Z,160
2018-03-14T08:12:06.166Z,160
2018-03-14T08:13:06.143Z,170
2018-03-14T08:14:06.359Z,180
2018-03-14T08:15:05.858Z,195
2018-03-14T08:16:05.843Z,205
2018-03-14T08:17:06.185Z,205
2018-03-14T08:18:06.074Z,190
2018-03-14T08:19:06.314Z,175
2018-03-14T08:20:05.788Z,160
2018-03-14T08:21:06.291Z,175
2018-03-14T08:22:06.286Z,195
2018-03-14T08:23:06.130Z,210
2018-03-14T08:24:05.986Z,205
2018-03-14T08:25:05.962Z,195
2018-03-14T08:26:06.316Z,180
2018-03-14T08:27:06.198Z,175
2018-03-14T08:28:05.918Z,195
2018-03-14T08:29:05.898Z,220
2018-03-14T08:30:05.628Z,240
2018-03-14T08:31:05.880Z,240
2018-03-14T08:32:06.115Z,250
2018-03-14T08:33:05.844Z,260
2018-03-14T08:34:05.570Z,255
2018-03-14T08:35:05.551Z,215
2018-03-14T08:36:05.796Z,200
2018-03-14T08:37:05.527Z,220
2018-03-14T08:38:05.764Z,260
2018-03-14T08:39:05.746Z,270
2018-03-14T08:40:05.482Z,275
2018-03-14T08:41:05.468Z,300
2018-03-14T08:42:05.449Z,325
2018-03-14T08:43:05.695Z,300
2018-03-14T08:44:05.679Z,305
2018-03-14T08:45:05.400Z,300
2018-03-14T08:46:05.395Z,285
2018-03-14T08:47:05.633Z,250
2018-03-14T08:48:05.619Z,265
2018-03-14T08:49:05.603Z,275
2018-03-14T08:50:05.585Z,235
2018-03-14T08:51:05.832Z,205
2018-03-14T08:52:05.844Z,200
2018-03-14T08:53:05.545Z,235
2018-03-14T08:54:05.535Z,245
2018-03-14T08:55:05.261Z,275
2018-03-14T08:56:05.245Z,240
2018-03-14T08:57:05.492Z,225
2018-03-14T08:58:05.736Z,195
2018-03-14T08:59:05.456Z,185
2018-03-14T09:00:05.444Z,175
2018-03-14T09:01:05.434Z,180
2018-03-14T09:02:05.413Z,195
2018-03-14T09:03:05.143Z,190
2018-03-14T09:04:05.383Z,205
2018-03-14T09:05:05.633Z,185
2018-03-14T09:06:05.356Z,195
2018-03-14T09:07:05.344Z,220
2018-03-14T09:08:05.323Z,215
2018-03-14T09:09:05.314Z,195
2018-03-14T09:10:05.559Z,205
2018-03-14T09:11:05.030Z,205
2018-03-14T09:12:05.266Z,215
2018-03-14T09:13:05.508Z,240
2018-03-14T09:14:05.241Z,240
2018-03-14T09:15:05.219Z,205
2018-03-14T09:16:05.207Z,180
2018-03-14T09:17:05.199Z,170
2018-03-14T09:18:05.447Z,170
2018-03-14T09:19:05.166Z,170
2018-03-14T09:20:05.404Z,140
2018-03-14T09:21:05.397Z,140
2018-03-14T09:22:04.605Z,170
2018-03-14T09:23:05.369Z,175
2018-03-14T09:24:05.349Z,175
2018-03-14T09:25:04.818Z,180
2018-03-14T09:26:05.315Z,195
2018-03-14T09:27:05.303Z,175
2018-03-14T09:28:05.290Z,170
2018-03-14T09:29:05.272Z,170
2018-03-14T09:30:04.999Z,165
2018-03-14T09:31:05.245Z,160
2018-03-14T09:32:04.974Z,160
2018-03-14T09:33:04.960Z,170
2018-03-14T09:34:04.683Z,195
2018-03-14T09:35:04.669Z,195
2018-03-14T09:36:04.914Z,195
2018-03-14T09:37:05.152Z,195
2018-03-14T09:38:05.137Z,185
2018-03-14T09:39:04.868Z,170
2018-03-14T09:40:04.601Z,160
2018-03-14T09:41:04.577Z,165
2018-03-14T09:42:04.564Z,190
2018-03-14T09:43:04.806Z,210
2018-03-14T09:44:04.791Z,190
2018-03-14T09:45:04.268Z,150
2018-03-14T09:46:05.127Z,125
2018-03-14T09:47:04.792Z,115
2018-03-14T09:48:04.729Z,120
2018-03-14T09:49:04.968Z,125
2018-03-14T09:50:04.192Z,130
2018-03-14T09:51:04.949Z,135
2018-03-14T09:52:04.412Z,140
2018-03-14T09:53:04.401Z,130
2018-03-14T09:54:04.643Z,130
2018-03-14T09:55:04.628Z,125
2018-03-14T09:56:04.097Z,125
2018-03-14T09:57:04.860Z,120
2018-03-14T09:58:04.841Z,120
2018-03-14T09:59:04.571Z,145
2018-03-14T10:00:04.043Z,165
2018-03-14T10:01:04.795Z,185
2018-03-14T10:02:04.264Z,190
2018-03-14T10:03:03.993Z,190
2018-03-14T10:04:04.781Z,190
2018-03-14T10:05:04.482Z,195
2018-03-14T10:06:03.954Z,215
2018-03-14T10:07:04.447Z,225
2018-03-14T10:08:04.434Z,225
2018-03-14T10:09:04.682Z,215
2018-03-14T10:10:03.888Z,225
2018-03-14T10:11:04.390Z,235
2018-03-14T10:12:04.638Z,235
2018-03-14T10:13:04.365Z,250
2018-03-14T10:14:04.092Z,270
2018-03-14T10:15:04.330Z,290
2018-03-14T10:16:04.317Z,285
2018-03-14T10:17:03.782Z,255
2018-03-14T10:18:03.770Z,240
2018-03-14T10:19:04.592Z,260
2018-03-14T10:20:04.528Z,295
2018-03-14T10:21:04.508Z,315
2018-03-14T10:22:04.611Z,305
2018-03-14T10:23:04.208Z,290
2018-03-14T10:24:04.199Z,270
2018-03-14T10:25:04.182Z,250
2018-03-14T10:26:03.933Z,270
2018-03-14T10:27:04.165Z,290
2018-03-14T10:28:04.149Z,290
2018-03-14T10:29:04.176Z,275
2018-03-14T10:30:04.105Z,250
2018-03-14T10:31:04.350Z,260
2018-03-14T10:32:03.831Z,285
2018-03-14T10:33:04.072Z,280
2018-03-14T10:34:04.314Z,255
2018-03-14T10:35:04.367Z,215
2018-03-14T10:36:03.514Z,175
2018-03-14T10:37:04.016Z,160
2018-03-14T10:38:04.011Z,165
2018-03-14T10:39:03.723Z,170
2018-03-14T10:40:03.974Z,170
2018-03-14T10:41:03.986Z,165
2018-03-14T10:42:03.935Z,165
2018-03-14T10:43:03.663Z,165
2018-03-14T10:44:03.905Z,160
2018-03-14T10:45:04.148Z,165
2018-03-14T10:46:04.284Z,170
2018-03-14T10:47:03.603Z,200
2018-03-14T10:48:03.852Z,215
2018-03-14T10:49:03.838Z,230
2018-03-14T10:50:04.135Z,250
2018-03-14T10:51:03.548Z,265
2018-03-14T10:52:03.537Z,265
2018-03-14T10:53:03.773Z,255
2018-03-14T10:54:04.027Z,230
2018-03-14T10:55:03.745Z,205
2018-03-14T10:56:03.833Z,190
2018-03-14T10:57:03.723Z,170
2018-03-14T10:58:03.705Z,150
2018-03-14T10:59:03.428Z,135
2018-03-14T11:00:03.929Z,135
2018-03-14T11:01:03.920Z,135
2018-03-14T11:02:03.638Z,140
2018-03-14T11:03:03.884Z,140
2018-03-14T11:04:03.610Z,150
2018-03-14T11:05:03.595Z,160
2018-03-14T11:06:03.587Z,150
2018-03-14T11:07:03.575Z,160
2018-03-14T11:08:03.806Z,165
2018-03-14T11:09:03.797Z,170
2018-03-14T11:10:03.527Z,180
2018-03-14T11:11:03.591Z,190
2018-03-14T11:12:03.487Z,200
2018-03-14T11:13:03.219Z,220
2018-03-14T11:14:03.203Z,235
2018-03-14T11:15:03.445Z,230
2018-03-14T11:16:02.924Z,235
2018-03-14T11:17:03.417Z,235
2018-03-14T11:18:03.144Z,230
2018-03-14T11:19:03.646Z,225
2018-03-14T11:20:03.627Z,210
2018-03-14T11:21:03.359Z,205
2018-03-14T11:22:03.596Z,185
2018-03-14T11:23:03.334Z,175
2018-03-14T11:24:03.054Z,185
2018-03-14T11:25:03.040Z,185
2018-03-14T11:26:03.291Z,180
2018-03-14T11:27:03.528Z,165
2018-03-14T11:28:03.010Z,155
2018-03-14T11:29:03.234Z,170
2018-03-14T11:30:03.489Z,190
2018-03-14T11:31:03.207Z,210
2018-03-14T11:32:02.681Z,230
2018-03-14T11:33:03.180Z,230
2018-03-14T11:34:03.168Z,230
2018-03-14T11:35:03.145Z,230
2018-03-14T11:36:02.880Z,230
2018-03-14T11:37:03.118Z,230
2018-03-14T11:38:03.112Z,235
2018-03-14T11:39:03.341Z,230
2018-03-14T11:40:03.071Z,235
2018-03-14T11:41:03.317Z,245
2018-03-14T11:42:02.786Z,265
2018-03-14T11:43:03.289Z,290
2018-03-14T11:44:03.017Z,320
2018-03-14T11:45:03.060Z,345
2018-03-14T11:46:02.992Z,335
2018-03-14T11:47:03.244Z,305
2018-03-14T11:48:02.699Z,275
2018-03-14T11:49:02.944Z,255
2018-03-14T11:50:02.934Z,235
2018-03-14T11:51:02.913Z,225
2018-03-14T11:52:02.642Z,215
2018-03-14T11:53:02.670Z,210
2018-03-14T11:54:03.586Z,200
2018-03-14T11:55:02.984Z,185
2018-03-14T11:56:03.153Z,175
2018-03-14T11:57:03.573Z,170
2018-03-14T11:58:02.823Z,175
2018-03-14T11:59:03.180Z,180
2018-03-14T12:00:03.047Z,180
2018-03-14T12:01:02.772Z,175
2018-03-14T12:02:03.019Z,180
2018-03-14T12:03:02.483Z,185
2018-03-14T12:04:02.747Z,205
2018-03-14T12:05:02.974Z,230
2018-03-14T12:06:02.963Z,260
2018-03-14T12:07:02.430Z,275
2018-03-14T12:08:02.984Z,265
2018-03-14T12:09:02.960Z,260
2018-03-14T12:10:02.643Z,255
2018-03-14T12:11:02.631Z,235
2018-03-14T12:12:02.613Z,215
2018-03-14T12:13:02.862Z,210
2018-03-14T12:14:02.590Z,220
2018-03-14T12:15:01.802Z,220
2018-03-14T12:16:02.307Z,220
2018-03-14T12:17:02.798Z,220
2018-03-14T12:18:02.843Z,220
2018-03-14T12:19:02.263Z,235
2018-03-14T12:20:02.247Z,245
2018-03-14T12:21:02.591Z,260
2018-03-14T12:22:01.699Z,275
2018-03-14T12:23:02.466Z,295
2018-03-14T12:24:02.447Z,305
2018-03-14T12:25:01.918Z,305
2018-03-14T12:26:02.413Z,310
2018-03-14T12:27:02.410Z,295
2018-03-14T12:28:02.653Z,290
2018-03-14T12:29:02.382Z,285
2018-03-14T12:30:02.820Z,270
2018-03-14T12:31:02.349Z,260
2018-03-14T12:32:02.599Z,265
2018-03-14T12:33:02.574Z,270
2018-03-14T12:34:02.309Z,265
2018-03-14T12:35:02.555Z,250
2018-03-14T12:36:02.279Z,235
2018-03-14T12:37:02.392Z,220
2018-03-14T12:38:02.521Z,210
2018-03-14T12:39:01.465Z,185
2018-03-14T12:40:02.553Z,165
2018-03-14T12:41:01.954Z,150
2018-03-14T12:42:02.457Z,145
2018-03-14T12:43:02.450Z,155
2018-03-14T12:44:01.919Z,170
2018-03-14T12:45:02.172Z,195
2018-03-14T12:46:02.207Z,210
2018-03-14T12:47:02.391Z,210
2018-03-14T12:48:02.119Z,210
2018-03-14T12:49:01.852Z,205
2018-03-14T12:50:02.348Z,210
2018-03-14T12:51:02.325Z,215
2018-03-14T12:52:02.064Z,220
2018-03-14T12:53:02.046Z,220
2018-03-14T12:54:01.833Z,235
2018-03-14T12:55:02.026Z,245
2018-03-14T12:56:02.008Z,260
2018-03-14T12:57:01.741Z,280
2018-03-14T12:58:01.977Z,285
2018-03-14T12:59:01.964Z,285
2018-03-14T13:00:01.688Z,255
2018-03-14T13:01:01.937Z,235
2018-03-14T13:02:01.406Z,235
2018-03-14T13:03:01.905Z,245
2018-03-14T13:04:02.153Z,245
2018-03-14T13:05:01.888Z,255
2018-03-14T13:06:01.870Z,275
2018-03-14T13:07:01.596Z,290
2018-03-14T13:08:01.849Z,300
2018-03-14T13:09:02.088Z,305
2018-03-14T13:10:01.809Z,310
2018-03-14T13:11:01.291Z,315
2018-03-14T13:12:01.786Z,325
2018-03-14T13:13:01.780Z,320
2018-03-14T13:14:01.759Z,325
2018-03-14T13:15:01.744Z,325
2018-03-14T13:16:01.729Z,325
2018-03-14T13:17:01.860Z,320
2018-03-14T13:18:01.963Z,315
2018-03-14T13:19:01.982Z,310
2018-03-14T13:20:01.682Z,315
2018-03-14T13:21:01.672Z,325
2018-03-14T13:22:01.651Z,335
2018-03-14T13:23:01.639Z,345
2018-03-14T13:24:01.622Z,355
2018-03-14T13:25:01.616Z,355
2018-03-14T13:26:01.594Z,355
2018-03-14T13:27:01.591Z,350
2018-03-14T13:28:01.617Z,345
2018-03-14T13:29:01.302Z,335
2018-03-14T13:30:01.553Z,340
2018-03-14T13:31:01.282Z,345
2018-03-14T13:32:01.529Z,345
2018-03-14T13:33:01.605Z,340
2018-03-14T13:34:01.502Z,335
2018-03-14T13:35:01.233Z,330
2018-03-14T13:36:01.733Z,315
2018-03-14T13:37:01.767Z,305
2018-03-14T13:38:01.444Z,305
2018-03-14T13:39:01.690Z,305
2018-03-14T13:40:00.966Z,300
2018-03-14T13:41:01.180Z,305
2018-03-14T13:43:01.635Z,290
2018-03-14T13:44:00.857Z,280
2018-03-14T13:45:01.616Z,270
2018-03-14T13:46:01.341Z,245
2018-03-14T13:47:01.069Z,225
2018-03-14T13:48:01.318Z,210
2018-03-14T13:49:01.578Z,200
2018-03-14T13:50:01.297Z,195
2018-03-14T13:51:01.370Z,195
2018-03-14T13:52:01.315Z,200
2018-03-14T13:53:01.255Z,195
2018-03-14T13:54:01.501Z,180
2018-03-14T13:55:01.485Z,165
2018-03-14T13:56:01.215Z,150
2018-03-14T13:57:01.469Z,125
2018-03-14T13:58:01.443Z,90
2018-03-14T13:59:01.558Z,60
2018-03-14T14:00:01.416Z,45
2018-03-14T14:01:01.147Z,35
2018-03-14T14:02:00.879Z,35
2018-03-14T14:03:01.127Z,30
2018-03-14T14:04:01.367Z,30
2018-03-14T14:05:01.105Z,25
2018-03-14T14:06:01.344Z,30
2018-03-14T14:07:00.813Z,40
2018-03-14T14:08:01.055Z,45
2018-03-14T14:09:01.375Z,45
2018-03-14T14:10:01.025Z,50
2018-03-14T14:11:01.011Z,50
2018-03-14T14:12:01.014Z,55
2018-03-14T14:13:00.795Z,60